Aérodrome :
LOGIN :

S'inscrire | Disclaimer

   EN    FR    IT 

 










Légende :    VFR   VFR Marginal   IFR   IFR Intensif   IFR Très Intensif
Visi : 
Plafond : 
>= 8 km
>= 3000ft
5 à 8 km
1000 à 3000 ft
1500m à 5 km
500 à 1000 ft
800 à 1500m
200 à 500 ft
< 800m
< 200 ft
Symboles :   Orages  Brouillard  Fortes neiges  Fortes précipitations  Vent > 20 kt
SIGMETs :   Divers  Orages  Givrage  Turbulence  Onde Orograph.  Cendres Volcan.







- Altitude de l'aérodrome : 289 ft


LIRG - Guidonia

DERNIER METAR :
  • 211655Z 22003KT CAVOK 12/05 Q1026 RMK SKC MON NE LIB NC VIS MIN 9999 BLU

METARs EXPIRÉS :
  • 211555Z 25007KT CAVOK 15/05 Q1026
  • 211455Z 26003KT 240V300 CAVOK 15/04 Q1026 RMK SKC MON NE LIB NC VIS MIN 9999 BLU

TAF TAF LIRG
Valide du 21 à 15h jusqu'au 22 à 00h UTC


211400Z 2115/2124 VRB03KT CAVOK
Pas de NOTAMs connus pour ce terrain.
2 SIGMETs publiés pour la FIR Roma (LIRR) :
 
Cendres volcaniques
LIRR SIGMET 9 VALID 211814/220014 LIIB
LIRR ROMA FIR VA ERUPTION MT ETNA PSN N3744 E01500 VA CLD OBS AT 1800Z WI N3630 E01504 - N3645 E01419 - N3730 E01434 - N3740 E01500 - N3630 E01504 SFC/FL120 NC FCST AT 22/0000Z WI N3630 E01456 - N3740 E01500 - N3655 E01600 - N3630 E01530 - N3630 E01456=
Cendres volcaniques
LIRR SIGMET 7 VALID 211214/211814 LIIB
LIRR ROMA FIR VA ERUPTION MT ETNA PSN N3744 E01500 VA CLD OBS AT 1200Z WI N3719 E01455 - N3725 E01440 - N3745 E01455 - N3745 E01500 - N3719 E01455 SFC/FL150 NC FCST AT 1800Z WI N3640 E01445 - N3740 E01500 - N3645 E01534 - N3640 E01445=



MET'MAP, la Météo Aéronautique d'un coup d'oeil ! - Copyright ORBIFLY Décembre 2007 - Disclaimer

ORBIFLY MET'MAP TEAM :

Programmation & Développement : Alexandra Zaïnal
Conception & Développement : Baudouin d'Aumeries
Co-Programmation & Développement : Marc-Olivier Méhu
Soutien technique & logistique : Manuel Goepfert

Contact : metmap@orbifly.com




SOURCES & CREDITS :

   NOAA